Terminal Aerodrome Forecast
Issued by NWS Cleveland, OH

Home | Current Version | Previous Version | Graphics & Text | Print | Product List | Glossary On
Versions: 1 2 3 4 5 6 7 8 9 10 11 12 13 14 15 16 17 18
000
FTUS41 KCLE 281737
TAFYNG
TAF
KYNG 281737Z 2818/2918 31012G20KT P6SM VCSH BKN007 OVC015
     FM282300 32011KT P6SM VCSH SCT007 OVC015
     FM290100 23004KT P6SM SCT020
      TEMPO 2901/2903 BKN020
     FM290800 VRB03KT 5SM BR FEW250
     FM291500 17007KT P6SM SCT120 BKN200=

USA.gov is the U.S. government's official web portal to all federal, state and local government web resources and services.